Time;durP1;ratioP1;P1;durP2;ratioP2;P2;SDS_P1;SDS_P2;PMS_P1;PMS_P2;Temp;Humidity;BMP_temperature;BMP_pressure;BME280_temperature;BME280_humidity;BME280_pressure;Samples;Min_cycle;Max_cycle;Signal;HPM_P1;HPM_P2
2022/01/07 00:01:22;;;;;;;67.30;25.00;;;;;;;-3.46;73.60;100751.42;52537;1271;1015928;-62
2022/01/07 00:03:55;;;;;;;69.70;25.00;;;;;;;-3.46;73.51;100753.38;52596;1271;1016375;-62
2022/01/07 00:06:26;;;;;;;73.20;26.90;;;;;;;-3.48;73.60;100754.30;52542;1271;1016618;-62
2022/01/07 00:08:57;;;;;;;71.30;26.40;;;;;;;-3.46;73.65;100746.98;52630;1271;1015955;-62
2022/01/07 00:11:28;;;;;;;70.60;25.40;;;;;;;-3.43;73.58;100749.35;52551;1271;1015810;-63
2022/01/07 00:14:00;;;;;;;80.60;28.80;;;;;;;-3.40;73.50;100744.94;52639;1272;1016552;-62
2022/01/07 00:16:31;;;;;;;66.20;25.60;;;;;;;-3.39;73.67;100745.98;52764;1272;1016415;-63
2022/01/07 00:19:03;;;;;;;72.70;25.90;;;;;;;-3.37;73.60;100748.64;52510;1272;1016209;-63
2022/01/07 00:21:34;;;;;;;64.40;24.30;;;;;;;-3.36;73.63;100748.04;52566;1271;1017066;-63
2022/01/07 00:24:07;;;;;;;65.10;25.10;;;;;;;-3.36;73.64;100746.86;52653;1271;1016308;-63
2022/01/07 00:26:38;;;;;;;71.30;27.20;;;;;;;-3.36;73.72;100739.77;52599;1273;1015565;-62
2022/01/07 00:29:10;;;;;;;71.80;28.30;;;;;;;-3.36;73.81;100735.79;52629;1271;1016238;-63
2022/01/07 00:31:42;;;;;;;78.60;29.90;;;;;;;-3.35;73.86;100733.77;52592;1272;1015934;-62
2022/01/07 00:34:13;;;;;;;82.00;29.80;;;;;;;-3.34;73.88;100732.14;52557;1272;1016699;-63
2022/01/07 00:36:45;;;;;;;85.80;30.80;;;;;;;-3.34;74.00;100730.81;52106;1273;1569372;-63
2022/01/07 00:39:16;;;;;;;92.60;32.30;;;;;;;-3.35;74.02;100727.45;52560;1272;1016255;-62
2022/01/07 00:41:47;;;;;;;77.10;28.60;;;;;;;-3.35;74.05;100726.05;52530;1271;1016365;-63
2022/01/07 00:44:18;;;;;;;68.80;26.40;;;;;;;-3.33;73.98;100727.95;52723;1272;1016588;-63
2022/01/07 00:46:50;;;;;;;83.40;28.40;;;;;;;-3.33;74.03;100730.36;52626;1272;1016362;-64
2022/01/07 00:49:22;;;;;;;81.90;29.10;;;;;;;-3.33;74.04;100730.90;52762;1272;1016541;-63
2022/01/07 00:51:54;;;;;;;83.90;29.80;;;;;;;-3.32;73.92;100726.55;52640;1271;1016280;-63
2022/01/07 00:54:25;;;;;;;70.50;26.70;;;;;;;-3.32;73.95;100719.61;52691;1272;1017997;-63
2022/01/07 00:56:56;;;;;;;62.70;24.40;;;;;;;-3.31;74.03;100714.71;52591;1271;1019780;-62
2022/01/07 00:59:28;;;;;;;69.80;25.70;;;;;;;-3.31;74.01;100714.09;52606;1272;1016345;-63
2022/01/07 01:01:59;;;;;;;61.00;23.60;;;;;;;-3.30;73.87;100722.05;52756;1273;1016987;-62
2022/01/07 01:04:30;;;;;;;58.10;23.20;;;;;;;-3.30;73.91;100727.66;52646;1271;1018226;-63
2022/01/07 01:07:02;;;;;;;51.40;19.40;;;;;;;-3.31;73.94;100728.36;52688;1273;1017388;-63
2022/01/07 01:09:33;;;;;;;48.70;18.70;;;;;;;-3.33;74.06;100728.25;52764;1271;1016468;-63
2022/01/07 01:12:04;;;;;;;44.20;15.80;;;;;;;-3.36;74.13;100724.73;52726;1272;1015943;-64
2022/01/07 01:14:35;;;;;;;47.50;14.10;;;;;;;-3.38;74.03;100726.33;52721;1273;1016666;-63
2022/01/07 01:17:08;;;;;;;41.20;15.40;;;;;;;-3.39;74.09;100728.73;52740;1271;1016669;-63
2022/01/07 01:19:39;;;;;;;46.60;13.40;;;;;;;-3.40;74.07;100725.92;52829;1272;1016146;-63
2022/01/07 01:22:10;;;;;;;48.30;13.90;;;;;;;-3.42;74.12;100727.45;52746;1271;1019706;-62
2022/01/07 01:24:42;;;;;;;43.60;13.40;;;;;;;-3.46;74.02;100726.01;52624;1271;1015959;-63
2022/01/07 01:27:13;;;;;;;38.90;12.90;;;;;;;-3.51;74.17;100722.52;52669;1273;1019001;-63
2022/01/07 01:29:44;;;;;;;41.50;11.80;;;;;;;-3.56;74.32;100718.40;52609;1272;1019715;-63
2022/01/07 01:32:16;;;;;;;35.00;11.00;;;;;;;-3.57;74.42;100718.41;52677;1273;1016757;-64
2022/01/07 01:34:47;;;;;;;37.10;11.00;;;;;;;-3.58;74.51;100716.80;52762;1271;1016244;-62
2022/01/07 01:37:18;;;;;;;32.60;8.90;;;;;;;-3.60;74.73;100714.84;52656;1273;1016205;-62
2022/01/07 01:39:50;;;;;;;30.40;8.90;;;;;;;-3.60;74.79;100718.05;52757;1271;1016358;-63
2022/01/07 01:42:21;;;;;;;34.50;8.80;;;;;;;-3.61;74.75;100713.98;52640;1271;1016531;-64
2022/01/07 01:44:52;;;;;;;28.90;8.20;;;;;;;-3.63;75.02;100714.12;52725;1273;1016343;-63
2022/01/07 01:47:24;;;;;;;26.80;6.60;;;;;;;-3.63;74.92;100712.40;52673;1271;1016246;-62
2022/01/07 01:49:55;;;;;;;30.50;7.30;;;;;;;-3.64;74.89;100717.99;52767;1272;1016438;-63
2022/01/07 01:52:26;;;;;;;26.00;5.80;;;;;;;-3.64;75.18;100717.07;52640;1272;1019118;-63
2022/01/07 01:54:57;;;;;;;22.00;5.50;;;;;;;-3.62;75.13;100713.11;52579;1272;1016514;-63
2022/01/07 01:57:29;;;;;;;27.20;6.20;;;;;;;-3.61;75.16;100716.48;52713;1272;1016426;-63
2022/01/07 02:00:00;;;;;;;25.50;5.60;;;;;;;-3.59;75.14;100717.20;52690;1271;1016133;-62
2022/01/07 02:02:31;;;;;;;25.60;5.40;;;;;;;-3.58;75.03;100716.51;52826;1271;1018999;-62
2022/01/07 02:05:03;;;;;;;27.10;6.40;;;;;;;-3.57;75.05;100712.48;52767;1271;1016606;-63
2022/01/07 02:07:37;;;;;;;31.90;6.70;;;;;;;-3.57;75.08;100714.02;52813;1272;1016226;-63
2022/01/07 02:10:11;;;;;;;28.10;6.50;;;;;;;-3.56;74.95;100713.11;52946;1273;1016085;-63
2022/01/07 02:12:43;;;;;;;25.40;6.20;;;;;;;-3.56;74.94;100713.02;52849;1271;1016067;-63
2022/01/07 02:15:16;;;;;;;27.20;6.70;;;;;;;-3.55;74.96;100702.52;52684;1271;1016047;-63
2022/01/07 02:17:49;;;;;;;25.10;6.10;;;;;;;-3.54;74.92;100706.41;52680;1273;1016601;-62
2022/01/07 02:20:23;;;;;;;28.50;5.10;;;;;;;-3.53;74.95;100705.34;52712;1273;1016596;-63
2022/01/07 02:22:54;;;;;;;24.60;4.80;;;;;;;-3.52;74.78;100700.13;52701;1272;1016610;-62
2022/01/07 02:25:27;;;;;;;23.80;4.80;;;;;;;-3.50;74.76;100702.64;52526;1271;1017120;-63
2022/01/07 02:27:59;;;;;;;30.60;4.90;;;;;;;-3.49;74.59;100700.23;52649;1271;1016258;-62
2022/01/07 02:30:31;;;;;;;26.50;4.70;;;;;;;-3.51;74.57;100700.98;52628;1273;1016508;-62
2022/01/07 02:33:02;;;;;;;23.40;4.70;;;;;;;-3.53;74.49;100693.10;52571;1273;1016489;-62
2022/01/07 02:35:35;;;;;;;21.80;4.90;;;;;;;-3.52;74.55;100701.05;52617;1273;1019076;-62
2022/01/07 02:38:06;;;;;;;20.20;4.80;;;;;;;-3.51;74.54;100704.11;52690;1273;1016516;-62
2022/01/07 02:40:37;;;;;;;20.90;4.40;;;;;;;-3.50;74.55;100707.40;52596;1272;1016040;-63
2022/01/07 02:43:10;;;;;;;22.00;5.50;;;;;;;-3.49;74.57;100704.04;52617;1272;1016689;-63
2022/01/07 02:45:41;;;;;;;24.40;4.70;;;;;;;-3.51;74.49;100707.86;52754;1272;1016673;-63
2022/01/07 02:48:12;;;;;;;22.50;4.70;;;;;;;-3.51;74.52;100700.98;52621;1271;1016612;-62
2022/01/07 02:50:44;;;;;;;25.30;5.30;;;;;;;-3.51;74.48;100705.84;52700;1271;1016254;-63
2022/01/07 02:53:15;;;;;;;21.20;3.50;;;;;;;-3.50;74.55;100703.19;52663;1273;1016498;-63
2022/01/07 02:55:46;;;;;;;18.90;3.30;;;;;;;-3.49;74.57;100708.50;52682;1272;1020424;-63
2022/01/07 02:58:17;;;;;;;23.60;4.90;;;;;;;-3.50;74.58;100707.95;52806;1272;1016923;-63
2022/01/07 03:00:48;;;;;;;20.00;4.30;;;;;;;-3.50;74.53;100710.36;52530;1271;1017099;-63
2022/01/07 03:03:20;;;;;;;20.30;4.30;;;;;;;-3.48;74.60;100709.84;52678;1272;1017754;-63
2022/01/07 03:05:51;;;;;;;18.50;3.80;;;;;;;-3.48;74.47;100714.35;52583;1271;1016328;-63
2022/01/07 03:08:22;;;;;;;20.20;3.80;;;;;;;-3.49;74.57;100712.23;52757;1271;1016223;-62
2022/01/07 03:10:53;;;;;;;16.00;3.20;;;;;;;-3.50;74.57;100709.05;52667;1273;1016342;-62
2022/01/07 03:13:24;;;;;;;25.40;4.40;;;;;;;-3.51;74.65;100707.15;52601;1272;1020361;-63
2022/01/07 03:15:56;;;;;;;27.30;6.40;;;;;;;-3.51;74.65;100703.48;52755;1272;1016726;-63
2022/01/07 03:18:27;;;;;;;29.30;5.20;;;;;;;-3.52;74.80;100703.55;52578;1271;1016438;-63
2022/01/07 03:21:00;;;;;;;29.30;6.80;;;;;;;-3.51;74.76;100705.90;52725;1271;1020073;-62
2022/01/07 03:23:31;;;;;;;33.40;8.10;;;;;;;-3.48;74.74;100703.29;52655;1272;1016052;-63
2022/01/07 03:26:02;;;;;;;27.70;6.60;;;;;;;-3.49;74.56;100706.94;52726;1271;1016545;-62
2022/01/07 03:28:34;;;;;;;28.50;6.50;;;;;;;-3.50;74.56;100704.13;52665;1272;1016650;-62
2022/01/07 03:31:06;;;;;;;23.80;6.40;;;;;;;-3.49;74.59;100706.79;52661;1271;1016580;-62
2022/01/07 03:33:37;;;;;;;24.30;4.90;;;;;;;-3.47;74.60;100700.48;52732;1271;1016486;-63
2022/01/07 03:36:08;;;;;;;24.50;5.00;;;;;;;-3.46;74.59;100699.26;52662;1272;1016612;-62
2022/01/07 03:38:39;;;;;;;21.60;4.20;;;;;;;-3.44;74.61;100697.55;52647;1271;1016709;-62
2022/01/07 03:41:11;;;;;;;23.40;3.60;;;;;;;-3.45;74.48;100692.10;52763;1271;1016677;-64
2022/01/07 03:43:42;;;;;;;29.00;5.40;;;;;;;-3.46;74.55;100685.14;52618;1271;1016675;-63
2022/01/07 03:46:13;;;;;;;20.70;4.30;;;;;;;-3.47;74.57;100687.95;52632;1271;1016632;-63
2022/01/07 03:48:44;;;;;;;22.60;4.80;;;;;;;-3.48;74.69;100690.59;52703;1271;1016625;-63
2022/01/07 03:51:16;;;;;;;18.90;3.90;;;;;;;-3.53;74.74;100695.83;52680;1272;1016564;-62
2022/01/07 03:53:48;;;;;;;19.20;4.90;;;;;;;-3.56;74.79;100691.27;52693;1271;1017769;-62
2022/01/07 03:56:20;;;;;;;15.70;3.90;;;;;;;-3.58;74.91;100689.14;52677;1273;1019028;-62
2022/01/07 03:58:51;;;;;;;18.20;3.80;;;;;;;-3.57;74.91;100686.82;52684;1271;1016242;-62
2022/01/07 04:01:23;;;;;;;17.20;4.10;;;;;;;-3.58;74.94;100684.77;52755;1271;1015639;-62
2022/01/07 04:03:54;;;;;;;19.20;4.10;;;;;;;-3.59;75.04;100690.38;52559;1271;1016758;-62
2022/01/07 04:06:25;;;;;;;21.80;5.40;;;;;;;-3.62;75.05;100690.97;52645;1271;1016654;-62
2022/01/07 04:08:57;;;;;;;16.70;4.90;;;;;;;-3.62;75.27;100686.20;52753;1271;1016468;-62
2022/01/07 04:11:29;;;;;;;19.60;5.10;;;;;;;-3.62;75.34;100688.01;52613;1271;1016641;-63
2022/01/07 04:14:00;;;;;;;22.70;5.60;;;;;;;-3.63;75.36;100686.74;52635;1271;1016215;-63
2022/01/07 04:16:32;;;;;;;21.10;5.20;;;;;;;-3.66;75.52;100695.21;52691;1271;1016704;-62
2022/01/07 04:19:03;;;;;;;27.30;5.70;;;;;;;-3.69;75.57;100689.24;52610;1271;1018116;-63
2022/01/07 04:21:34;;;;;;;21.10;5.40;;;;;;;-3.69;75.63;100689.86;52585;1271;1016532;-63
2022/01/07 04:24:06;;;;;;;22.40;5.30;;;;;;;-3.70;75.81;100689.47;52746;1271;1016378;-64
2022/01/07 04:26:38;;;;;;;18.30;4.90;;;;;;;-3.69;75.86;100690.09;52685;1271;1016269;-62
2022/01/07 04:29:10;;;;;;;23.40;6.00;;;;;;;-3.70;76.03;100686.65;52736;1271;1015965;-63
2022/01/07 04:31:41;;;;;;;21.80;5.10;;;;;;;-3.72;75.98;100684.92;52534;1271;1016926;-63
2022/01/07 04:34:12;;;;;;;20.10;4.50;;;;;;;-3.72;76.16;100687.97;52617;1271;1017120;-63
2022/01/07 04:36:43;;;;;;;23.40;5.50;;;;;;;-3.70;76.09;100688.92;52549;1271;1015976;-63
2022/01/07 04:39:14;;;;;;;21.10;4.60;;;;;;;-3.69;76.27;100688.93;52609;1271;1017277;-62
2022/01/07 04:41:45;;;;;;;22.60;5.00;;;;;;;-3.69;76.37;100685.04;52711;1271;1016017;-63
2022/01/07 04:44:19;;;;;;;24.20;5.30;;;;;;;-3.68;76.45;100683.49;52549;1271;1016839;-63
2022/01/07 04:46:50;;;;;;;23.20;5.40;;;;;;;-3.65;76.30;100681.98;52734;1271;1016194;-63
2022/01/07 04:49:21;;;;;;;27.70;5.90;;;;;;;-3.62;76.40;100680.92;52704;1271;1016382;-62
2022/01/07 04:51:52;;;;;;;23.40;4.90;;;;;;;-3.61;76.39;100679.76;52875;1271;1016551;-63
2022/01/07 04:54:23;;;;;;;19.80;4.20;;;;;;;-3.61;76.45;100679.05;52518;1272;1016627;-62
2022/01/07 04:56:53;;;;;;;19.90;4.80;;;;;;;-3.61;76.64;100676.02;52613;1271;1017997;-62
2022/01/07 04:59:25;;;;;;;26.30;5.20;;;;;;;-3.60;76.63;100679.67;52570;1271;1017210;-62
2022/01/07 05:01:56;;;;;;;21.40;4.40;;;;;;;-3.60;76.78;100682.65;52663;1271;1016654;-62
2022/01/07 05:04:27;;;;;;;18.40;4.10;;;;;;;-3.59;76.97;100676.90;52563;1271;1016594;-62
2022/01/07 05:06:58;;;;;;;18.20;3.50;;;;;;;-3.57;76.97;100671.45;52596;1271;1016316;-62
2022/01/07 05:09:29;;;;;;;19.80;4.10;;;;;;;-3.55;77.06;100666.95;52561;1272;1016206;-62
2022/01/07 05:12:00;;;;;;;22.60;5.40;;;;;;;-3.54;77.17;100668.06;52601;1271;1016052;-62
2022/01/07 05:14:31;;;;;;;20.10;4.90;;;;;;;-3.52;77.19;100660.27;52546;1272;1016090;-62
2022/01/07 05:17:03;;;;;;;20.40;4.30;;;;;;;-3.50;77.22;100659.84;52657;1271;1016658;-62
2022/01/07 05:19:35;;;;;;;16.80;4.50;;;;;;;-3.48;77.21;100656.35;52511;1271;1016864;-62
2022/01/07 05:22:07;;;;;;;19.30;4.80;;;;;;;-3.46;77.23;100650.05;52566;1271;1016902;-62
2022/01/07 05:24:38;;;;;;;22.70;5.10;;;;;;;-3.44;77.19;100648.59;52575;1271;1016373;-63
2022/01/07 05:27:10;;;;;;;24.60;6.70;;;;;;;-3.42;77.21;100649.46;52537;1271;1016670;-62
2022/01/07 05:29:41;;;;;;;21.70;4.90;;;;;;;-3.41;77.24;100649.09;52609;1271;1016329;-62
2022/01/07 05:32:12;;;;;;;23.20;6.10;;;;;;;-3.40;77.44;100648.70;52567;1271;1018703;-62
2022/01/07 05:34:43;;;;;;;20.10;5.70;;;;;;;-3.38;77.34;100647.08;52582;1271;1019914;-63
2022/01/07 05:37:14;;;;;;;16.30;4.80;;;;;;;-3.36;77.44;100634.94;52520;1271;1017779;-62
2022/01/07 05:39:45;;;;;;;17.00;4.20;;;;;;;-3.33;77.36;100632.39;52630;1271;1016700;-62
2022/01/07 05:42:17;;;;;;;19.50;4.70;;;;;;;-3.33;77.36;100631.14;52539;1271;1016127;-63
2022/01/07 05:44:47;;;;;;;21.90;4.10;;;;;;;-3.32;77.46;100627.42;52630;1271;1016520;-63
2022/01/07 05:47:19;;;;;;;18.50;4.00;;;;;;;-3.30;77.33;100624.70;52512;1272;1016403;-62
2022/01/07 05:49:49;;;;;;;15.10;5.30;;;;;;;-3.28;77.12;100618.48;52584;1271;1018137;-63
2022/01/07 05:52:21;;;;;;;19.60;4.20;;;;;;;-3.26;77.01;100615.22;52524;1271;1016471;-62
2022/01/07 05:54:54;;;;;;;19.20;4.80;;;;;;;-3.23;77.02;100612.27;52637;1271;1016686;-62
2022/01/07 05:57:25;;;;;;;20.00;5.20;;;;;;;-3.20;77.10;100616.98;52636;1271;1016303;-62
2022/01/07 05:59:56;;;;;;;25.90;5.40;;;;;;;-3.18;76.85;100617.24;52552;1271;1016681;-62
2022/01/07 06:02:27;;;;;;;21.50;6.00;;;;;;;-3.17;76.88;100623.71;52605;1271;1016609;-62
2022/01/07 06:04:58;;;;;;;25.40;6.40;;;;;;;-3.15;76.86;100621.63;52663;1271;1016074;-62
2022/01/07 06:07:29;;;;;;;24.70;6.80;;;;;;;-3.14;76.76;100618.91;52706;1271;1016163;-64
2022/01/07 06:10:01;;;;;;;27.80;6.90;;;;;;;-3.13;76.82;100615.81;52714;1271;1016614;-64
2022/01/07 06:12:32;;;;;;;31.10;9.00;;;;;;;-3.13;76.92;100608.63;52620;1271;1016477;-63
2022/01/07 06:15:04;;;;;;;27.60;8.30;;;;;;;-3.15;77.01;100603.38;52530;1271;1016661;-62
2022/01/07 06:17:36;;;;;;;25.80;7.50;;;;;;;-3.15;76.98;100608.05;52536;1271;1017348;-62
2022/01/07 06:20:09;;;;;;;23.60;6.10;;;;;;;-3.15;77.10;100609.70;52552;1271;1016746;-62
2022/01/07 06:22:40;;;;;;;23.10;7.20;;;;;;;-3.18;77.12;100615.29;52653;1271;1016442;-62
2022/01/07 06:25:12;;;;;;;20.30;5.70;;;;;;;-3.21;77.15;100618.69;52503;1272;1016688;-62
2022/01/07 06:27:43;;;;;;;20.40;6.40;;;;;;;-3.23;77.24;100623.83;52560;1271;1018011;-62
2022/01/07 06:30:16;;;;;;;17.70;4.80;;;;;;;-3.23;77.30;100624.99;52581;1271;1019803;-62
2022/01/07 06:32:47;;;;;;;22.10;6.20;;;;;;;-3.24;77.36;100634.03;52504;1271;1016724;-62
2022/01/07 06:35:18;;;;;;;20.40;6.40;;;;;;;-3.24;77.27;100639.89;52582;1271;1016585;-62
2022/01/07 06:37:49;;;;;;;19.50;5.80;;;;;;;-3.26;77.33;100642.05;52529;1271;1016629;-62
2022/01/07 06:40:20;;;;;;;25.90;6.30;;;;;;;-3.27;77.33;100643.38;52615;1271;1016673;-62
2022/01/07 06:42:52;;;;;;;23.50;7.40;;;;;;;-3.26;77.35;100647.28;52537;1272;1016573;-62
2022/01/07 06:45:23;;;;;;;24.30;7.40;;;;;;;-3.27;77.40;100649.61;52642;1271;1015931;-62
2022/01/07 06:47:54;;;;;;;29.80;6.70;;;;;;;-3.27;77.37;100655.39;52547;1271;1016601;-62
2022/01/07 06:50:25;;;;;;;24.50;6.90;;;;;;;-3.26;77.41;100649.39;52515;1271;1016403;-62
2022/01/07 06:52:56;;;;;;;24.00;6.50;;;;;;;-3.27;77.35;100645.48;52580;1271;1016470;-62
2022/01/07 06:55:27;;;;;;;26.50;8.00;;;;;;;-3.27;77.42;100645.48;52581;1271;1016260;-63
2022/01/07 06:57:58;;;;;;;36.00;10.20;;;;;;;-3.25;77.44;100642.84;52483;1271;1020086;-63
2022/01/07 07:00:30;;;;;;;37.00;12.60;;;;;;;-3.26;77.55;100645.80;52609;1271;1016678;-63
2022/01/07 07:03:01;;;;;;;31.30;10.70;;;;;;;-3.26;77.64;100641.89;52630;1271;1016641;-63
2022/01/07 07:05:32;;;;;;;28.40;10.20;;;;;;;-3.27;77.70;100639.02;52464;1272;1016236;-63
2022/01/07 07:08:03;;;;;;;30.80;13.20;;;;;;;-3.26;77.71;100635.04;52696;1271;1016660;-63
2022/01/07 07:10:34;;;;;;;32.40;15.70;;;;;;;-3.26;77.74;100637.76;52641;1271;1016821;-64
2022/01/07 07:13:06;;;;;;;24.90;11.80;;;;;;;-3.26;77.76;100641.20;52608;1271;1016500;-63
2022/01/07 07:15:37;;;;;;;28.10;10.70;;;;;;;-3.23;77.68;100633.41;52580;1272;1020199;-63
2022/01/07 07:18:08;;;;;;;29.30;9.90;;;;;;;-3.22;77.80;100632.27;52555;1271;1016563;-63
2022/01/07 07:20:39;;;;;;;25.50;8.00;;;;;;;-3.20;77.78;100630.64;52750;1272;1018717;-63
2022/01/07 07:23:11;;;;;;;28.40;9.70;;;;;;;-3.20;77.74;100630.02;52691;1271;1019256;-62
2022/01/07 07:25:42;;;;;;;29.20;8.90;;;;;;;-3.17;77.74;100623.80;52667;1271;1016540;-65
2022/01/07 07:28:13;;;;;;;26.80;9.50;;;;;;;-3.16;77.91;100622.17;52786;1271;1015866;-63
2022/01/07 07:30:45;;;;;;;36.50;13.40;;;;;;;-3.14;78.09;100613.52;52787;1271;1016373;-65
2022/01/07 07:33:32;;;;;;;40.80;13.60;;;;;;;-3.11;78.13;100618.16;53366;1271;1016389;-63
2022/01/07 07:38:52;;;;;;;29.40;11.30;;;;;;;-3.03;78.31;100618.45;52553;1271;1016340;-62
2022/01/07 07:41:23;;;;;;;32.30;11.90;;;;;;;-3.01;78.55;100614.41;52607;1271;1016693;-63
2022/01/07 07:43:56;;;;;;;30.00;11.20;;;;;;;-2.97;78.67;100607.95;52646;1271;1017197;-62
2022/01/07 07:46:30;;;;;;;31.40;11.90;;;;;;;-2.94;78.72;100604.02;52706;1271;1015733;-63
2022/01/07 07:49:04;;;;;;;27.70;10.10;;;;;;;-2.89;78.78;100601.77;52851;1271;1016571;-62
2022/01/07 07:51:35;;;;;;;20.10;7.10;;;;;;;-2.84;78.67;100606.20;52864;1274;1015954;-62
2022/01/07 07:54:09;;;;;;;31.90;10.10;;;;;;;-2.79;78.85;100604.66;52850;1271;1016231;-62
2022/01/07 07:56:40;;;;;;;28.80;11.00;;;;;;;-2.73;78.94;100601.19;52873;1271;1016436;-61
2022/01/07 07:59:11;;;;;;;29.50;9.40;;;;;;;-2.68;78.91;100594.98;52778;1271;1016391;-61
2022/01/07 08:01:42;;;;;;;32.60;9.70;;;;;;;-2.62;78.92;100597.42;52541;1271;1017374;-64
2022/01/07 08:04:15;;;;;;;25.00;9.50;;;;;;;-2.56;78.96;100597.70;53867;1271;1015959;-63
2022/01/07 08:06:47;;;;;;;26.60;8.90;;;;;;;-2.50;78.87;100601.17;52858;1271;1016411;-63
2022/01/07 08:09:18;;;;;;;25.80;8.00;;;;;;;-2.44;78.90;100601.27;52683;1272;1016352;-62
2022/01/07 08:11:52;;;;;;;20.00;6.90;;;;;;;-2.37;78.75;100601.86;52797;1271;1017099;-63
2022/01/07 08:17:14;;;;;;;25.90;7.10;;;;;;;-2.25;78.80;100602.23;52786;1272;1016204;-59
2022/01/07 08:19:46;;;;;;;20.30;6.00;;;;;;;-2.18;78.67;100597.80;52920;1271;1016514;-59
2022/01/07 08:22:18;;;;;;;23.70;6.00;;;;;;;-2.12;78.62;100598.70;52844;1271;1015834;-61
2022/01/07 08:24:49;;;;;;;19.50;6.10;;;;;;;-2.06;78.55;100599.02;52857;1271;1016230;-61
2022/01/07 08:27:22;;;;;;;19.50;5.60;;;;;;;-2.00;78.54;100600.38;52785;1271;1016091;-61
2022/01/07 08:29:53;;;;;;;24.50;6.80;;;;;;;-1.95;78.41;100602.52;52869;1271;1016327;-61
2022/01/07 08:35:13;;;;;;;21.60;5.40;;;;;;;-1.82;78.33;100599.10;52834;1271;1016491;-60
2022/01/07 08:37:44;;;;;;;20.80;5.80;;;;;;;-1.77;78.29;100604.37;52658;1271;1016390;-62
2022/01/07 08:40:17;;;;;;;23.80;6.70;;;;;;;-1.74;78.33;100604.67;52795;1271;1016668;-61
2022/01/07 08:42:48;;;;;;;24.00;6.30;;;;;;;-1.70;78.39;100604.14;52840;1271;1016663;-61
2022/01/07 08:45:20;;;;;;;26.70;7.40;;;;;;;-1.66;78.34;100606.73;52788;1271;1016096;-61
2022/01/07 08:47:51;;;;;;;23.50;5.80;;;;;;;-1.61;78.40;100608.77;52833;1271;1016688;-61
2022/01/07 08:50:23;;;;;;;22.60;6.00;;;;;;;-1.58;78.49;100602.05;52661;1271;1016260;-61
2022/01/07 08:52:56;;;;;;;22.40;5.20;;;;;;;-1.53;78.36;100606.91;52613;1271;1015793;-60
2022/01/07 08:55:27;;;;;;;17.00;4.70;;;;;;;-1.47;78.15;100599.72;52643;1271;1018205;-60
2022/01/07 08:57:58;;;;;;;17.10;4.50;;;;;;;-1.42;78.09;100599.81;52604;1271;1016685;-60
2022/01/07 09:00:29;;;;;;;23.80;6.20;;;;;;;-1.37;78.10;100598.41;52716;1271;1015443;-66
2022/01/07 09:03:01;;;;;;;25.50;6.20;;;;;;;-1.32;78.02;100598.49;52662;1271;1016287;-60
2022/01/07 09:05:32;;;;;;;27.60;6.30;;;;;;;-1.28;77.87;100598.58;52711;1271;1018603;-59
2022/01/07 09:08:06;;;;;;;18.50;6.10;;;;;;;-1.24;77.78;100595.45;52689;1272;1016270;-61
2022/01/07 09:10:38;;;;;;;25.80;6.00;;;;;;;-1.19;77.62;100590.83;52808;1271;1018060;-59
2022/01/07 09:13:10;;;;;;;22.30;6.30;;;;;;;-1.15;77.57;100589.65;52663;1271;1016194;-60
2022/01/07 09:15:42;;;;;;;23.90;5.50;;;;;;;-1.11;77.81;100587.93;52947;1271;1016510;-61
2022/01/07 09:18:15;;;;;;;21.20;4.90;;;;;;;-1.07;77.55;100582.70;52883;1271;1017260;-59
2022/01/07 09:20:48;;;;;;;18.20;3.70;;;;;;;-1.03;77.50;100583.08;52833;1271;1015965;-60
2022/01/07 09:23:19;;;;;;;18.60;4.90;;;;;;;-1.01;77.36;100577.13;52869;1271;1016687;-63
2022/01/07 09:26:04;;;;;;;21.70;4.90;;;;;;;-0.98;77.42;100576.65;52838;1271;1016561;-61
2022/01/07 09:28:35;;;;;;;23.90;4.70;;;;;;;-0.94;77.28;100575.55;52690;1271;1017541;-61
2022/01/07 09:31:07;;;;;;;19.10;5.10;;;;;;;-0.91;77.14;100577.59;52821;1271;1016179;-60
2022/01/07 09:33:38;;;;;;;20.10;5.30;;;;;;;-0.87;77.14;100570.62;52850;1271;1020325;-59
2022/01/07 09:36:09;;;;;;;23.00;5.70;;;;;;;-0.84;77.19;100573.51;52753;1271;1016082;-59
2022/01/07 09:38:40;;;;;;;19.10;4.90;;;;;;;-0.80;77.03;100573.89;52878;1271;1016276;-60
2022/01/07 09:41:11;;;;;;;25.80;5.00;;;;;;;-0.78;76.93;100573.34;52813;1271;1018910;-60
2022/01/07 09:43:46;;;;;;;23.60;5.40;;;;;;;-0.75;77.15;100567.08;52870;1271;1016036;-60
2022/01/07 09:46:19;;;;;;;21.40;5.80;;;;;;;-0.72;76.82;100570.44;52857;1271;1017503;-60
2022/01/07 09:48:50;;;;;;;22.70;5.50;;;;;;;-0.69;77.08;100569.64;52948;1271;1016724;-59
2022/01/07 09:51:22;;;;;;;19.60;4.60;;;;;;;-0.66;77.00;100565.64;52997;1271;1017869;-61
2022/01/07 09:53:53;;;;;;;19.10;4.40;;;;;;;-0.63;77.10;100564.77;52865;1272;1016534;-59
2022/01/07 09:56:24;;;;;;;22.00;4.70;;;;;;;-0.60;76.96;100558.81;52793;1271;1016458;-59
2022/01/07 09:58:56;;;;;;;18.60;4.10;;;;;;;-0.55;77.00;100557.00;52811;1271;1016674;-60
2022/01/07 10:01:27;;;;;;;17.00;3.10;;;;;;;-0.51;76.97;100559.80;53038;1271;1016042;-61
2022/01/07 10:03:58;;;;;;;16.50;2.90;;;;;;;-0.44;76.91;100555.00;52872;1271;1018835;-60
2022/01/07 10:06:30;;;;;;;14.90;3.20;;;;;;;-0.38;76.92;100547.69;52887;1271;1017475;-61
2022/01/07 10:09:07;;;;;;;13.50;2.70;;;;;;;-0.31;76.82;100539.83;52772;1271;1016731;-60
2022/01/07 10:11:39;;;;;;;13.10;2.30;;;;;;;-0.21;76.64;100534.61;52910;1271;1016425;-60
2022/01/07 10:14:22;;;;;;;15.40;2.80;;;;;;;-0.13;76.51;100528.05;52882;1271;1016553;-60
2022/01/07 10:16:55;;;;;;;13.10;1.90;;;;;;;-0.04;76.43;100521.74;52880;1271;1016655;-61
2022/01/07 10:19:35;;;;;;;10.80;2.30;;;;;;;0.04;76.10;100523.58;52724;1271;1016568;-62
2022/01/07 10:22:08;;;;;;;10.20;2.10;;;;;;;0.11;76.06;100521.96;53117;1271;1016655;-60
2022/01/07 10:24:56;;;;;;;11.40;2.20;;;;;;;0.19;75.95;100520.81;53544;1271;1016317;-61
2022/01/07 10:27:34;;;;;;;13.80;2.30;;;;;;;0.24;75.87;100513.26;53049;1271;1018678;-61
2022/01/07 10:30:13;;;;;;;11.30;2.40;;;;;;;0.29;75.64;100511.25;53055;1271;1016579;-60
2022/01/07 10:32:45;;;;;;;12.80;2.30;;;;;;;0.37;75.63;100506.73;52924;1271;1016381;-61
2022/01/07 10:35:18;;;;;;;11.90;1.80;;;;;;;0.45;75.28;100503.69;54588;1271;1015782;-61
2022/01/07 10:37:51;;;;;;;9.10;2.20;;;;;;;0.50;75.27;100506.63;54577;1271;1015982;-61
2022/01/07 10:40:31;;;;;;;11.90;2.10;;;;;;;0.56;74.86;100501.23;53354;1271;1018100;-61
2022/01/07 10:43:15;;;;;;;10.00;1.80;;;;;;;0.61;74.83;100497.75;52617;1271;1016668;-60
2022/01/07 10:45:49;;;;;;;17.50;2.20;;;;;;;0.64;74.70;100493.48;53057;1271;1016211;-61
2022/01/07 10:48:22;;;;;;;13.70;1.50;;;;;;;0.68;74.36;100494.55;52873;1271;1016122;-60
2022/01/07 10:50:55;;;;;;;10.00;2.00;;;;;;;0.71;74.21;100491.77;52822;1271;1016501;-60
2022/01/07 10:53:29;;;;;;;14.70;2.40;;;;;;;0.75;74.16;100494.64;52928;1271;1016817;-61
2022/01/07 10:56:09;;;;;;;15.70;1.90;;;;;;;0.81;74.22;100493.09;52926;1271;1017347;-59
2022/01/07 10:58:51;;;;;;;;;;;;;;;0.86;74.30;100500.96;52927;1271;1016551;-61
2022/01/07 11:01:40;;;;;;;11.80;2.00;;;;;;;0.89;74.06;100502.28;52848;1271;1016600;-61
2022/01/07 11:04:14;;;;;;;11.30;1.50;;;;;;;0.91;73.83;100500.54;52792;1271;1016591;-59
2022/01/07 11:06:46;;;;;;;10.70;1.90;;;;;;;0.91;73.94;100498.89;52976;1271;1016616;-59
2022/01/07 11:09:19;;;;;;;10.40;2.40;;;;;;;0.90;73.44;100494.96;52991;1271;1016581;-60
2022/01/07 11:11:53;;;;;;;13.00;2.20;;;;;;;0.90;73.39;100493.88;52943;1271;1016937;-60
2022/01/07 11:14:26;;;;;;;10.60;1.90;;;;;;;0.89;73.34;100487.20;52922;1271;1016583;-61
2022/01/07 11:16:59;;;;;;;10.70;2.10;;;;;;;0.88;73.04;100484.86;52908;1271;1016573;-60
2022/01/07 11:19:33;;;;;;;15.20;1.70;;;;;;;0.87;73.08;100481.34;54066;1271;1016551;-61
2022/01/07 11:22:06;;;;;;;10.00;2.10;;;;;;;0.87;73.22;100481.51;52985;1271;1016622;-60
2022/01/07 11:24:39;;;;;;;17.90;2.40;;;;;;;0.86;73.33;100478.52;52957;1271;1015605;-61
2022/01/07 11:27:12;;;;;;;10.90;2.70;;;;;;;0.87;73.29;100474.19;52986;1271;1016702;-60
2022/01/07 11:29:51;;;;;;;14.40;3.40;;;;;;;0.88;73.09;100481.00;52911;1271;1016065;-60
2022/01/07 11:32:35;;;;;;;12.70;2.80;;;;;;;0.91;73.08;100474.86;54566;1271;1015487;-61